sensor_id;sensor_type;location;lat;lon;timestamp;pressure;altitude;pressure_sealevel;temperature;humidity
51067;BME280;37112;45.892;-123.962;2023-01-29T00:01:42;101628.02;;;8.60;83.91
51067;BME280;37112;45.892;-123.962;2023-01-29T00:03:55;101625.48;;;8.49;84.18
51067;BME280;37112;45.892;-123.962;2023-01-29T00:06:11;101622.81;;;8.42;84.50
51067;BME280;37112;45.892;-123.962;2023-01-29T00:08:24;101618.16;;;8.34;84.71
51067;BME280;37112;45.892;-123.962;2023-01-29T00:10:37;101617.95;;;8.26;84.78
51067;BME280;37112;45.892;-123.962;2023-01-29T00:12:51;101616.03;;;8.22;85.20
51067;BME280;37112;45.892;-123.962;2023-01-29T00:15:06;101623.81;;;8.22;85.73
51067;BME280;37112;45.892;-123.962;2023-01-29T00:17:19;101627.61;;;8.20;85.80
51067;BME280;37112;45.892;-123.962;2023-01-29T00:19:32;101635.27;;;8.19;86.08
51067;BME280;37112;45.892;-123.962;2023-01-29T00:21:46;101631.71;;;8.19;86.36
51067;BME280;37112;45.892;-123.962;2023-01-29T00:23:59;101633.25;;;8.21;86.66
51067;BME280;37112;45.892;-123.962;2023-01-29T00:26:13;101630.77;;;8.20;86.72
51067;BME280;37112;45.892;-123.962;2023-01-29T00:28:27;101632.61;;;8.23;87.12
51067;BME280;37112;45.892;-123.962;2023-01-29T00:30:40;101638.04;;;8.24;87.13
51067;BME280;37112;45.892;-123.962;2023-01-29T00:32:53;101640.47;;;8.26;87.13
51067;BME280;37112;45.892;-123.962;2023-01-29T00:35:13;101642.95;;;8.25;87.03
51067;BME280;37112;45.892;-123.962;2023-01-29T00:37:26;101637.41;;;8.22;87.01
51067;BME280;37112;45.892;-123.962;2023-01-29T00:39:39;101637.14;;;8.21;86.91
51067;BME280;37112;45.892;-123.962;2023-01-29T00:41:56;101641.88;;;8.22;87.41
51067;BME280;37112;45.892;-123.962;2023-01-29T00:44:26;101641.40;;;8.21;87.28
51067;BME280;37112;45.892;-123.962;2023-01-29T00:46:56;101642.77;;;8.21;87.59
51067;BME280;37112;45.892;-123.962;2023-01-29T00:49:10;101647.90;;;8.21;87.63
51067;BME280;37112;45.892;-123.962;2023-01-29T00:51:23;101650.66;;;8.23;87.74
51067;BME280;37112;45.892;-123.962;2023-01-29T00:53:36;101653.89;;;8.22;87.52
51067;BME280;37112;45.892;-123.962;2023-01-29T00:55:50;101656.05;;;8.17;87.30
51067;BME280;37112;45.892;-123.962;2023-01-29T00:58:04;101654.02;;;8.15;87.42
51067;BME280;37112;45.892;-123.962;2023-01-29T01:00:20;101655.52;;;8.13;87.45
51067;BME280;37112;45.892;-123.962;2023-01-29T01:02:34;101658.96;;;8.11;87.33
51067;BME280;37112;45.892;-123.962;2023-01-29T01:05:06;101656.20;;;8.04;86.98
51067;BME280;37112;45.892;-123.962;2023-01-29T01:07:24;101657.41;;;7.97;86.90
51067;BME280;37112;45.892;-123.962;2023-01-29T01:09:38;101655.75;;;7.91;87.01
51067;BME280;37112;45.892;-123.962;2023-01-29T01:12:08;101653.29;;;7.86;87.21
51067;BME280;37112;45.892;-123.962;2023-01-29T01:14:21;101651.13;;;7.82;87.32
51067;BME280;37112;45.892;-123.962;2023-01-29T01:16:35;101649.85;;;7.79;87.64
51067;BME280;37112;45.892;-123.962;2023-01-29T01:18:49;101647.08;;;7.77;87.66
51067;BME280;37112;45.892;-123.962;2023-01-29T01:21:02;101651.44;;;7.75;87.67
51067;BME280;37112;45.892;-123.962;2023-01-29T01:23:15;101651.00;;;7.73;87.87
51067;BME280;37112;45.892;-123.962;2023-01-29T01:25:28;101650.65;;;7.73;88.13
51067;BME280;37112;45.892;-123.962;2023-01-29T01:27:42;101646.44;;;7.72;88.09
51067;BME280;37112;45.892;-123.962;2023-01-29T01:29:55;101644.16;;;7.72;88.32
51067;BME280;37112;45.892;-123.962;2023-01-29T01:32:08;101642.48;;;7.74;88.62
51067;BME280;37112;45.892;-123.962;2023-01-29T01:34:21;101643.55;;;7.73;88.59
51067;BME280;37112;45.892;-123.962;2023-01-29T01:36:36;101642.86;;;7.73;88.62
51067;BME280;37112;45.892;-123.962;2023-01-29T01:38:50;101643.95;;;7.72;88.72
51067;BME280;37112;45.892;-123.962;2023-01-29T01:41:03;101645.17;;;7.72;88.92
51067;BME280;37112;45.892;-123.962;2023-01-29T01:43:17;101644.50;;;7.72;88.89
51067;BME280;37112;45.892;-123.962;2023-01-29T01:45:31;101646.84;;;7.70;88.78
51067;BME280;37112;45.892;-123.962;2023-01-29T01:47:48;101651.44;;;7.66;88.44
51067;BME280;37112;45.892;-123.962;2023-01-29T01:50:07;101650.52;;;7.63;88.42
51067;BME280;37112;45.892;-123.962;2023-01-29T01:52:23;101648.90;;;7.59;88.56
51067;BME280;37112;45.892;-123.962;2023-01-29T01:54:36;101646.02;;;7.56;88.45
51067;BME280;37112;45.892;-123.962;2023-01-29T01:56:51;101644.50;;;7.54;88.71
51067;BME280;37112;45.892;-123.962;2023-01-29T01:59:16;101652.56;;;7.51;88.64
51067;BME280;37112;45.892;-123.962;2023-01-29T02:01:30;101650.79;;;7.47;88.47
51067;BME280;37112;45.892;-123.962;2023-01-29T02:03:46;101657.37;;;7.46;88.87
51067;BME280;37112;45.892;-123.962;2023-01-29T02:06:18;101657.01;;;7.46;88.82
51067;BME280;37112;45.892;-123.962;2023-01-29T02:08:53;101665.05;;;7.44;88.79
51067;BME280;37112;45.892;-123.962;2023-01-29T02:11:25;101662.88;;;7.41;88.84
51067;BME280;37112;45.892;-123.962;2023-01-29T02:13:39;101662.77;;;7.40;89.18
51067;BME280;37112;45.892;-123.962;2023-01-29T02:15:53;101665.83;;;7.38;89.09
51067;BME280;37112;45.892;-123.962;2023-01-29T02:18:07;101666.30;;;7.35;89.11
51067;BME280;37112;45.892;-123.962;2023-01-29T02:20:25;101667.80;;;7.33;89.10
51067;BME280;37112;45.892;-123.962;2023-01-29T02:23:11;101667.61;;;7.28;89.05
51067;BME280;37112;45.892;-123.962;2023-01-29T02:25:46;101671.84;;;7.24;88.98
51067;BME280;37112;45.892;-123.962;2023-01-29T02:28:18;101679.30;;;7.18;88.81
51067;BME280;37112;45.892;-123.962;2023-01-29T02:30:35;101685.30;;;7.14;89.01
51067;BME280;37112;45.892;-123.962;2023-01-29T02:32:55;101685.73;;;7.12;89.22
51067;BME280;37112;45.892;-123.962;2023-01-29T02:35:20;101682.09;;;7.10;89.45
51067;BME280;37112;45.892;-123.962;2023-01-29T02:37:44;101686.02;;;7.09;89.71
51067;BME280;37112;45.892;-123.962;2023-01-29T02:40:09;101684.80;;;7.08;89.54
51067;BME280;37112;45.892;-123.962;2023-01-29T02:42:30;101679.62;;;7.05;89.64
51067;BME280;37112;45.892;-123.962;2023-01-29T02:44:50;101680.45;;;7.02;89.28
51067;BME280;37112;45.892;-123.962;2023-01-29T02:47:12;101685.05;;;6.97;88.94
51067;BME280;37112;45.892;-123.962;2023-01-29T02:49:34;101687.68;;;6.92;89.09
51067;BME280;37112;45.892;-123.962;2023-01-29T02:51:58;101686.89;;;6.90;89.19
51067;BME280;37112;45.892;-123.962;2023-01-29T02:54:19;101691.39;;;6.88;89.28
51067;BME280;37112;45.892;-123.962;2023-01-29T02:56:38;101695.90;;;6.85;89.13
51067;BME280;37112;45.892;-123.962;2023-01-29T02:58:58;101701.96;;;6.83;89.30
51067;BME280;37112;45.892;-123.962;2023-01-29T03:01:17;101709.47;;;6.81;89.19
51067;BME280;37112;45.892;-123.962;2023-01-29T03:03:35;101711.12;;;6.75;88.91
51067;BME280;37112;45.892;-123.962;2023-01-29T03:05:55;101714.11;;;6.69;88.88
51067;BME280;37112;45.892;-123.962;2023-01-29T03:08:14;101714.48;;;6.64;88.74
51067;BME280;37112;45.892;-123.962;2023-01-29T03:10:32;101713.55;;;6.60;88.86
51067;BME280;37112;45.892;-123.962;2023-01-29T03:12:49;101719.83;;;6.57;88.76
51067;BME280;37112;45.892;-123.962;2023-01-29T03:15:08;101720.73;;;6.52;88.83
51067;BME280;37112;45.892;-123.962;2023-01-29T03:17:46;101724.63;;;6.47;88.80
51067;BME280;37112;45.892;-123.962;2023-01-29T03:19:59;101729.10;;;6.44;88.96
51067;BME280;37112;45.892;-123.962;2023-01-29T03:22:16;101734.56;;;6.40;88.93
51067;BME280;37112;45.892;-123.962;2023-01-29T03:24:37;101728.11;;;6.32;88.75
51067;BME280;37112;45.892;-123.962;2023-01-29T03:27:12;101731.53;;;6.25;88.60
51067;BME280;37112;45.892;-123.962;2023-01-29T03:29:45;101735.80;;;6.18;88.40
51067;BME280;37112;45.892;-123.962;2023-01-29T03:32:37;101726.63;;;6.07;88.09
51067;BME280;37112;45.892;-123.962;2023-01-29T03:34:53;101738.16;;;5.95;87.12
51067;BME280;37112;45.892;-123.962;2023-01-29T03:37:11;101740.21;;;5.78;86.67
51067;BME280;37112;45.892;-123.962;2023-01-29T03:39:27;101742.65;;;5.69;86.96
51067;BME280;37112;45.892;-123.962;2023-01-29T03:41:44;101741.00;;;5.59;86.58
51067;BME280;37112;45.892;-123.962;2023-01-29T03:44:09;101747.05;;;5.51;86.53
51067;BME280;37112;45.892;-123.962;2023-01-29T03:46:28;101748.35;;;5.43;86.66
51067;BME280;37112;45.892;-123.962;2023-01-29T03:48:49;101752.77;;;5.37;86.55
51067;BME280;37112;45.892;-123.962;2023-01-29T03:51:13;101755.80;;;5.29;86.42
51067;BME280;37112;45.892;-123.962;2023-01-29T03:53:34;101759.97;;;5.19;85.96
51067;BME280;37112;45.892;-123.962;2023-01-29T03:55:56;101761.58;;;5.13;86.16
51067;BME280;37112;45.892;-123.962;2023-01-29T03:58:19;101768.60;;;5.07;86.24
51067;BME280;37112;45.892;-123.962;2023-01-29T04:00:37;101769.64;;;5.01;86.05
51067;BME280;37112;45.892;-123.962;2023-01-29T04:03:00;101767.49;;;4.96;86.29
51067;BME280;37112;45.892;-123.962;2023-01-29T04:05:12;101771.63;;;4.93;86.26
51067;BME280;37112;45.892;-123.962;2023-01-29T04:07:44;101772.66;;;4.87;86.01
51067;BME280;37112;45.892;-123.962;2023-01-29T04:10:02;101770.37;;;4.81;85.89
51067;BME280;37112;45.892;-123.962;2023-01-29T04:12:24;101768.27;;;4.73;85.80
51067;BME280;37112;45.892;-123.962;2023-01-29T04:14:39;101770.17;;;4.69;85.83
51067;BME280;37112;45.892;-123.962;2023-01-29T04:16:55;101775.36;;;4.65;85.72
51067;BME280;37112;45.892;-123.962;2023-01-29T04:19:17;101781.48;;;4.59;85.39
51067;BME280;37112;45.892;-123.962;2023-01-29T04:21:31;101787.30;;;4.52;85.26
51067;BME280;37112;45.892;-123.962;2023-01-29T04:23:47;101790.26;;;4.46;85.50
51067;BME280;37112;45.892;-123.962;2023-01-29T04:26:21;101795.27;;;4.42;85.66
51067;BME280;37112;45.892;-123.962;2023-01-29T04:28:51;101804.88;;;4.39;85.82
51067;BME280;37112;45.892;-123.962;2023-01-29T04:31:08;101814.94;;;4.37;85.76
51067;BME280;37112;45.892;-123.962;2023-01-29T04:33:33;101815.70;;;4.34;85.62
51067;BME280;37112;45.892;-123.962;2023-01-29T04:36:00;101822.67;;;4.30;85.51
51067;BME280;37112;45.892;-123.962;2023-01-29T04:38:24;101830.83;;;4.26;85.43
51067;BME280;37112;45.892;-123.962;2023-01-29T04:40:48;101831.11;;;4.23;85.51
51067;BME280;37112;45.892;-123.962;2023-01-29T04:43:06;101837.33;;;4.19;85.39
51067;BME280;37112;45.892;-123.962;2023-01-29T04:45:26;101837.76;;;4.16;85.55
51067;BME280;37112;45.892;-123.962;2023-01-29T04:47:49;101844.32;;;4.13;85.40
51067;BME280;37112;45.892;-123.962;2023-01-29T04:50:13;101843.71;;;4.09;85.24
51067;BME280;37112;45.892;-123.962;2023-01-29T04:52:37;101848.34;;;4.07;85.33
51067;BME280;37112;45.892;-123.962;2023-01-29T04:54:59;101847.86;;;4.04;85.22
51067;BME280;37112;45.892;-123.962;2023-01-29T04:57:18;101857.75;;;4.02;85.48
51067;BME280;37112;45.892;-123.962;2023-01-29T04:59:38;101858.00;;;3.99;85.22
51067;BME280;37112;45.892;-123.962;2023-01-29T05:01:54;101866.48;;;3.96;85.25
51067;BME280;37112;45.892;-123.962;2023-01-29T05:04:10;101871.30;;;3.94;84.81
51067;BME280;37112;45.892;-123.962;2023-01-29T05:06:26;101873.09;;;3.93;85.24
51067;BME280;37112;45.892;-123.962;2023-01-29T05:08:40;101882.61;;;3.91;84.98
51067;BME280;37112;45.892;-123.962;2023-01-29T05:10:55;101874.91;;;3.88;84.94
51067;BME280;37112;45.892;-123.962;2023-01-29T05:13:12;101873.36;;;3.87;84.97
51067;BME280;37112;45.892;-123.962;2023-01-29T05:15:30;101883.38;;;3.87;84.89
51067;BME280;37112;45.892;-123.962;2023-01-29T05:17:46;101887.08;;;3.87;84.81
51067;BME280;37112;45.892;-123.962;2023-01-29T05:19:59;101885.02;;;3.85;84.66
51067;BME280;37112;45.892;-123.962;2023-01-29T05:22:15;101890.48;;;3.84;84.28
51067;BME280;37112;45.892;-123.962;2023-01-29T05:24:32;101886.66;;;3.82;84.18
51067;BME280;37112;45.892;-123.962;2023-01-29T05:26:49;101891.77;;;3.81;83.98
51067;BME280;37112;45.892;-123.962;2023-01-29T05:29:20;101891.27;;;3.80;84.05
51067;BME280;37112;45.892;-123.962;2023-01-29T05:31:33;101894.11;;;3.79;83.66
51067;BME280;37112;45.892;-123.962;2023-01-29T05:33:47;101910.09;;;3.79;83.64
51067;BME280;37112;45.892;-123.962;2023-01-29T05:36:00;101913.96;;;3.78;83.38
51067;BME280;37112;45.892;-123.962;2023-01-29T05:38:15;101916.95;;;3.78;83.41
51067;BME280;37112;45.892;-123.962;2023-01-29T05:40:29;101917.14;;;3.77;82.98
51067;BME280;37112;45.892;-123.962;2023-01-29T05:42:43;101914.70;;;3.77;82.89
51067;BME280;37112;45.892;-123.962;2023-01-29T05:44:56;101921.71;;;3.77;83.05
51067;BME280;37112;45.892;-123.962;2023-01-29T05:47:09;101938.75;;;3.78;82.65
51067;BME280;37112;45.892;-123.962;2023-01-29T05:49:24;101942.83;;;3.76;82.88
51067;BME280;37112;45.892;-123.962;2023-01-29T05:51:37;101950.73;;;3.76;82.77
51067;BME280;37112;45.892;-123.962;2023-01-29T05:53:50;101957.80;;;3.74;82.62
51067;BME280;37112;45.892;-123.962;2023-01-29T05:56:04;101965.55;;;3.73;82.19
51067;BME280;37112;45.892;-123.962;2023-01-29T05:58:17;101968.05;;;3.71;82.06
51067;BME280;37112;45.892;-123.962;2023-01-29T06:00:30;101970.73;;;3.68;82.25
51067;BME280;37112;45.892;-123.962;2023-01-29T06:02:43;101975.68;;;3.67;81.92
51067;BME280;37112;45.892;-123.962;2023-01-29T06:04:57;101967.44;;;3.66;81.93
51067;BME280;37112;45.892;-123.962;2023-01-29T06:07:10;101974.85;;;3.63;81.53
51067;BME280;37112;45.892;-123.962;2023-01-29T06:09:23;101977.18;;;3.61;81.40
51067;BME280;37112;45.892;-123.962;2023-01-29T06:11:37;101986.48;;;3.62;81.37
51067;BME280;37112;45.892;-123.962;2023-01-29T06:13:50;101996.48;;;3.62;80.77
51067;BME280;37112;45.892;-123.962;2023-01-29T06:16:06;101997.02;;;3.61;80.59
51067;BME280;37112;45.892;-123.962;2023-01-29T06:18:20;101996.50;;;3.61;80.65
51067;BME280;37112;45.892;-123.962;2023-01-29T06:20:34;102011.42;;;3.62;80.85
51067;BME280;37112;45.892;-123.962;2023-01-29T06:22:47;102013.90;;;3.61;80.53
51067;BME280;37112;45.892;-123.962;2023-01-29T06:25:00;102022.20;;;3.59;79.99
51067;BME280;37112;45.892;-123.962;2023-01-29T06:27:16;102028.70;;;3.58;79.71
51067;BME280;37112;45.892;-123.962;2023-01-29T06:29:29;102035.20;;;3.58;79.90
51067;BME280;37112;45.892;-123.962;2023-01-29T06:31:42;102034.48;;;3.57;79.07
51067;BME280;37112;45.892;-123.962;2023-01-29T06:33:55;102036.25;;;3.58;79.35
51067;BME280;37112;45.892;-123.962;2023-01-29T06:36:09;102044.85;;;3.57;79.33
51067;BME280;37112;45.892;-123.962;2023-01-29T06:38:22;102045.75;;;3.56;79.28
51067;BME280;37112;45.892;-123.962;2023-01-29T06:40:35;102048.23;;;3.55;78.37
51067;BME280;37112;45.892;-123.962;2023-01-29T06:42:49;102046.48;;;3.55;78.65
51067;BME280;37112;45.892;-123.962;2023-01-29T06:45:03;102048.77;;;3.55;78.31
51067;BME280;37112;45.892;-123.962;2023-01-29T06:47:16;102051.08;;;3.54;77.56
51067;BME280;37112;45.892;-123.962;2023-01-29T06:49:29;102048.45;;;3.53;77.60
51067;BME280;37112;45.892;-123.962;2023-01-29T06:51:42;102058.27;;;3.54;77.64
51067;BME280;37112;45.892;-123.962;2023-01-29T06:53:56;102055.48;;;3.53;77.57
51067;BME280;37112;45.892;-123.962;2023-01-29T06:56:09;102054.25;;;3.53;77.57
51067;BME280;37112;45.892;-123.962;2023-01-29T06:58:23;102056.40;;;3.51;77.43
51067;BME280;37112;45.892;-123.962;2023-01-29T07:00:36;102060.27;;;3.50;77.08
51067;BME280;37112;45.892;-123.962;2023-01-29T07:02:52;102059.94;;;3.48;76.89
51067;BME280;37112;45.892;-123.962;2023-01-29T07:05:07;102057.17;;;3.47;77.09
51067;BME280;37112;45.892;-123.962;2023-01-29T07:07:19;102060.35;;;3.45;76.98
51067;BME280;37112;45.892;-123.962;2023-01-29T07:09:33;102064.09;;;3.43;77.02
51067;BME280;37112;45.892;-123.962;2023-01-29T07:11:45;102071.12;;;3.41;77.03
51067;BME280;37112;45.892;-123.962;2023-01-29T07:13:58;102074.82;;;3.41;77.09
51067;BME280;37112;45.892;-123.962;2023-01-29T07:16:12;102070.31;;;3.38;76.64
51067;BME280;37112;45.892;-123.962;2023-01-29T07:18:25;102072.28;;;3.36;76.42
51067;BME280;37112;45.892;-123.962;2023-01-29T07:20:39;102080.35;;;3.37;76.96
51067;BME280;37112;45.892;-123.962;2023-01-29T07:22:52;102079.83;;;3.36;76.65
51067;BME280;37112;45.892;-123.962;2023-01-29T07:25:08;102091.44;;;3.33;76.27
51067;BME280;37112;45.892;-123.962;2023-01-29T07:27:21;102100.27;;;3.30;76.31
51067;BME280;37112;45.892;-123.962;2023-01-29T07:29:35;102098.39;;;3.28;76.20
51067;BME280;37112;45.892;-123.962;2023-01-29T07:31:48;102109.84;;;3.24;75.97
51067;BME280;37112;45.892;-123.962;2023-01-29T07:34:01;102113.39;;;3.22;75.98
51067;BME280;37112;45.892;-123.962;2023-01-29T07:36:14;102110.97;;;3.19;75.62
51067;BME280;37112;45.892;-123.962;2023-01-29T07:38:27;102111.33;;;3.18;75.71
51067;BME280;37112;45.892;-123.962;2023-01-29T07:40:40;102111.88;;;3.17;75.68
51067;BME280;37112;45.892;-123.962;2023-01-29T07:43:03;102112.64;;;3.14;74.80
51067;BME280;37112;45.892;-123.962;2023-01-29T07:45:17;102109.16;;;3.12;74.93
51067;BME280;37112;45.892;-123.962;2023-01-29T07:47:30;102109.52;;;3.10;75.17
51067;BME280;37112;45.892;-123.962;2023-01-29T07:49:44;102109.71;;;3.08;74.68
51067;BME280;37112;45.892;-123.962;2023-01-29T07:52:01;102108.17;;;3.07;73.88
51067;BME280;37112;45.892;-123.962;2023-01-29T07:54:15;102115.75;;;3.05;73.81
51067;BME280;37112;45.892;-123.962;2023-01-29T07:56:29;102122.25;;;3.04;73.93
51067;BME280;37112;45.892;-123.962;2023-01-29T07:58:42;102128.40;;;3.02;74.23
51067;BME280;37112;45.892;-123.962;2023-01-29T08:00:56;102132.30;;;3.00;73.85
51067;BME280;37112;45.892;-123.962;2023-01-29T08:03:10;102135.69;;;2.96;73.16
51067;BME280;37112;45.892;-123.962;2023-01-29T08:05:26;102136.59;;;2.94;72.74
51067;BME280;37112;45.892;-123.962;2023-01-29T08:07:40;102143.97;;;2.93;73.25
51067;BME280;37112;45.892;-123.962;2023-01-29T08:09:59;102148.75;;;2.91;73.23
51067;BME280;37112;45.892;-123.962;2023-01-29T08:12:13;102151.41;;;2.89;73.12
51067;BME280;37112;45.892;-123.962;2023-01-29T08:14:26;102157.04;;;2.86;72.63
51067;BME280;37112;45.892;-123.962;2023-01-29T08:16:39;102162.51;;;2.84;72.47
51067;BME280;37112;45.892;-123.962;2023-01-29T08:18:53;102167.45;;;2.82;72.16
51067;BME280;37112;45.892;-123.962;2023-01-29T08:21:08;102182.91;;;2.80;71.93
51067;BME280;37112;45.892;-123.962;2023-01-29T08:23:22;102185.73;;;2.77;71.96
51067;BME280;37112;45.892;-123.962;2023-01-29T08:25:36;102192.09;;;2.75;71.73
51067;BME280;37112;45.892;-123.962;2023-01-29T08:27:49;102194.04;;;2.74;71.41
51067;BME280;37112;45.892;-123.962;2023-01-29T08:30:02;102207.02;;;2.72;71.20
51067;BME280;37112;45.892;-123.962;2023-01-29T08:32:16;102200.71;;;2.71;71.23
51067;BME280;37112;45.892;-123.962;2023-01-29T08:34:30;102200.72;;;2.71;71.30
51067;BME280;37112;45.892;-123.962;2023-01-29T08:36:44;102207.05;;;2.70;70.62
51067;BME280;37112;45.892;-123.962;2023-01-29T08:38:58;102208.12;;;2.68;70.13
51067;BME280;37112;45.892;-123.962;2023-01-29T08:41:11;102217.60;;;2.68;71.05
51067;BME280;37112;45.892;-123.962;2023-01-29T08:43:24;102217.98;;;2.66;70.20
51067;BME280;37112;45.892;-123.962;2023-01-29T08:45:39;102229.56;;;2.65;70.16
51067;BME280;37112;45.892;-123.962;2023-01-29T08:47:53;102230.96;;;2.63;69.31
51067;BME280;37112;45.892;-123.962;2023-01-29T08:50:08;102234.64;;;2.64;69.04
51067;BME280;37112;45.892;-123.962;2023-01-29T08:52:21;102242.72;;;2.63;67.95
51067;BME280;37112;45.892;-123.962;2023-01-29T08:54:35;102236.92;;;2.63;67.89
51067;BME280;37112;45.892;-123.962;2023-01-29T08:56:49;102243.95;;;2.63;68.32
51067;BME280;37112;45.892;-123.962;2023-01-29T08:59:02;102246.60;;;2.61;68.28
51067;BME280;37112;45.892;-123.962;2023-01-29T09:01:16;102250.67;;;2.60;68.69
51067;BME280;37112;45.892;-123.962;2023-01-29T09:03:30;102261.38;;;2.56;67.69
51067;BME280;37112;45.892;-123.962;2023-01-29T09:05:43;102270.34;;;2.55;68.21
51067;BME280;37112;45.892;-123.962;2023-01-29T09:07:58;102275.79;;;2.53;66.69
51067;BME280;37112;45.892;-123.962;2023-01-29T09:10:12;102278.95;;;2.53;66.99
51067;BME280;37112;45.892;-123.962;2023-01-29T09:12:25;102287.73;;;2.52;67.07
51067;BME280;37112;45.892;-123.962;2023-01-29T09:14:39;102293.52;;;2.51;66.98
51067;BME280;37112;45.892;-123.962;2023-01-29T09:16:52;102295.98;;;2.49;67.08
51067;BME280;37112;45.892;-123.962;2023-01-29T09:19:05;102295.11;;;2.48;67.55
51067;BME280;37112;45.892;-123.962;2023-01-29T09:21:20;102309.88;;;2.46;67.42
51067;BME280;37112;45.892;-123.962;2023-01-29T09:23:33;102317.27;;;2.43;66.68
51067;BME280;37112;45.892;-123.962;2023-01-29T09:25:46;102318.49;;;2.42;66.24
51067;BME280;37112;45.892;-123.962;2023-01-29T09:27:59;102325.15;;;2.43;65.45
51067;BME280;37112;45.892;-123.962;2023-01-29T09:30:14;102336.36;;;2.44;65.16
51067;BME280;37112;45.892;-123.962;2023-01-29T09:32:28;102339.33;;;2.45;64.83
51067;BME280;37112;45.892;-123.962;2023-01-29T09:35:01;102347.73;;;2.46;65.53
51067;BME280;37112;45.892;-123.962;2023-01-29T09:37:14;102354.06;;;2.45;65.05
51067;BME280;37112;45.892;-123.962;2023-01-29T09:39:29;102356.52;;;2.43;65.85
51067;BME280;37112;45.892;-123.962;2023-01-29T09:41:51;102361.83;;;2.38;65.72
51067;BME280;37112;45.892;-123.962;2023-01-29T09:44:12;102360.80;;;2.32;65.57
51067;BME280;37112;45.892;-123.962;2023-01-29T09:46:26;102361.73;;;2.28;66.16
51067;BME280;37112;45.892;-123.962;2023-01-29T09:48:44;102360.70;;;2.23;66.17
51067;BME280;37112;45.892;-123.962;2023-01-29T09:51:00;102362.84;;;2.17;66.17
51067;BME280;37112;45.892;-123.962;2023-01-29T09:53:20;102361.30;;;2.13;66.55
51067;BME280;37112;45.892;-123.962;2023-01-29T09:55:40;102367.27;;;2.08;66.69
51067;BME280;37112;45.892;-123.962;2023-01-29T09:57:56;102378.88;;;2.04;66.88
51067;BME280;37112;45.892;-123.962;2023-01-29T10:00:16;102384.31;;;2.01;67.02
51067;BME280;37112;45.892;-123.962;2023-01-29T10:02:51;102399.06;;;1.98;67.33
51067;BME280;37112;45.892;-123.962;2023-01-29T10:05:32;102403.10;;;1.96;67.25
51067;BME280;37112;45.892;-123.962;2023-01-29T10:08:10;102418.17;;;1.95;67.16
51067;BME280;37112;45.892;-123.962;2023-01-29T10:10:37;102424.99;;;1.95;67.52
51067;BME280;37112;45.892;-123.962;2023-01-29T10:13:02;102431.30;;;1.95;67.74
51067;BME280;37112;45.892;-123.962;2023-01-29T10:15:27;102432.69;;;1.93;67.57
51067;BME280;37112;45.892;-123.962;2023-01-29T10:18:02;102433.05;;;1.92;67.64
51067;BME280;37112;45.892;-123.962;2023-01-29T10:20:41;102441.31;;;1.90;67.87
51067;BME280;37112;45.892;-123.962;2023-01-29T10:23:04;102442.73;;;1.88;68.03
51067;BME280;37112;45.892;-123.962;2023-01-29T10:25:21;102450.60;;;1.86;68.23
51067;BME280;37112;45.892;-123.962;2023-01-29T10:27:37;102455.70;;;1.82;67.76
51067;BME280;37112;45.892;-123.962;2023-01-29T10:29:52;102464.29;;;1.81;68.15
51067;BME280;37112;45.892;-123.962;2023-01-29T10:32:07;102464.48;;;1.80;68.20
51067;BME280;37112;45.892;-123.962;2023-01-29T10:34:28;102467.10;;;1.81;68.20
51067;BME280;37112;45.892;-123.962;2023-01-29T10:36:46;102474.98;;;1.82;68.19
51067;BME280;37112;45.892;-123.962;2023-01-29T10:39:00;102477.95;;;1.82;68.17
51067;BME280;37112;45.892;-123.962;2023-01-29T10:44:06;102487.76;;;1.81;68.35
51067;BME280;37112;45.892;-123.962;2023-01-29T10:46:29;102494.23;;;1.80;68.27
51067;BME280;37112;45.892;-123.962;2023-01-29T10:48:48;102497.05;;;1.79;68.11
51067;BME280;37112;45.892;-123.962;2023-01-29T10:51:12;102503.69;;;1.77;68.37
51067;BME280;37112;45.892;-123.962;2023-01-29T10:53:37;102510.36;;;1.76;68.19
51067;BME280;37112;45.892;-123.962;2023-01-29T10:56:00;102514.73;;;1.75;68.13
51067;BME280;37112;45.892;-123.962;2023-01-29T10:58:35;102519.31;;;1.73;68.26
51067;BME280;37112;45.892;-123.962;2023-01-29T11:00:51;102523.15;;;1.72;68.15
51067;BME280;37112;45.892;-123.962;2023-01-29T11:03:15;102528.06;;;1.73;67.84
51067;BME280;37112;45.892;-123.962;2023-01-29T11:05:54;102527.70;;;1.75;68.20
51067;BME280;37112;45.892;-123.962;2023-01-29T11:08:11;102541.54;;;1.76;68.33
51067;BME280;37112;45.892;-123.962;2023-01-29T11:10:25;102549.58;;;1.76;68.17
51067;BME280;37112;45.892;-123.962;2023-01-29T11:12:39;102555.54;;;1.77;68.10
51067;BME280;37112;45.892;-123.962;2023-01-29T11:14:55;102557.80;;;1.78;68.02
51067;BME280;37112;45.892;-123.962;2023-01-29T11:17:16;102567.27;;;1.79;67.88
51067;BME280;37112;45.892;-123.962;2023-01-29T11:19:39;102569.56;;;1.79;67.90
51067;BME280;37112;45.892;-123.962;2023-01-29T11:21:56;102569.02;;;1.78;67.98
51067;BME280;37112;45.892;-123.962;2023-01-29T11:24:13;102574.98;;;1.78;67.74
51067;BME280;37112;45.892;-123.962;2023-01-29T11:26:27;102582.69;;;1.76;68.05
51067;BME280;37112;45.892;-123.962;2023-01-29T11:28:41;102583.05;;;1.74;68.07
51067;BME280;37112;45.892;-123.962;2023-01-29T11:30:55;102581.46;;;1.71;68.24
51067;BME280;37112;45.892;-123.962;2023-01-29T11:33:15;102582.17;;;1.69;68.17
51067;BME280;37112;45.892;-123.962;2023-01-29T11:35:32;102588.32;;;1.64;68.05
51067;BME280;37112;45.892;-123.962;2023-01-29T11:37:47;102592.86;;;1.60;68.37
51067;BME280;37112;45.892;-123.962;2023-01-29T11:40:00;102595.14;;;1.59;68.48
51067;BME280;37112;45.892;-123.962;2023-01-29T11:42:21;102601.63;;;1.57;68.62
51067;BME280;37112;45.892;-123.962;2023-01-29T11:44:39;102610.91;;;1.57;68.66